Time;durP1;ratioP1;P1;durP2;ratioP2;P2;SDS_P1;SDS_P2;PMS_P1;PMS_P2;Temp;Humidity;BMP_temperature;BMP_pressure;BME280_temperature;BME280_humidity;BME280_pressure;Samples;Min_cycle;Max_cycle;Signal;HPM_P1;HPM_P2
2022/07/24 00:02:11;;;;;;;6.00;5.10;;;22.50;99.90;;;;;;5063079;28;20202;-67
2022/07/24 00:04:38;;;;;;;6.72;5.45;;;22.40;99.90;;;;;;5062843;28;20206;-67
2022/07/24 00:07:05;;;;;;;6.15;4.90;;;22.50;99.90;;;;;;5064912;28;20674;-67
2022/07/24 00:09:31;;;;;;;6.18;5.28;;;22.50;99.90;;;;;;5066091;28;20202;-67
2022/07/24 00:11:58;;;;;;;6.20;5.30;;;22.40;99.90;;;;;;5063060;28;20221;-67
2022/07/24 00:14:26;;;;;;;5.85;5.25;;;22.40;99.90;;;;;;5063815;28;20213;-68
2022/07/24 00:16:52;;;;;;;6.10;5.20;;;22.30;99.90;;;;;;5063696;28;20202;-67
2022/07/24 00:19:19;;;;;;;8.02;5.32;;;22.20;99.90;;;;;;5063873;28;20221;-67
2022/07/24 00:21:47;;;;;;;7.25;5.43;;;22.20;99.90;;;;;;5057575;28;20214;-68
2022/07/24 00:24:13;;;;;;;6.50;5.68;;;22.20;99.90;;;;;;5063101;28;20197;-67
2022/07/24 00:26:40;;;;;;;6.60;5.75;;;22.30;99.90;;;;;;5069071;28;20195;-67
2022/07/24 00:29:07;;;;;;;7.32;5.50;;;22.20;99.90;;;;;;5064614;28;20201;-67
2022/07/24 00:31:34;;;;;;;7.43;4.88;;;22.00;99.90;;;;;;5062232;28;20218;-67
2022/07/24 00:34:01;;;;;;;5.65;4.70;;;21.80;99.90;;;;;;5057111;28;20206;-67
2022/07/24 00:36:28;;;;;;;8.40;5.18;;;21.80;99.90;;;;;;5067919;28;20206;-67
2022/07/24 00:38:54;;;;;;;9.63;5.60;;;21.60;99.90;;;;;;5058454;28;20233;-67
2022/07/24 00:41:21;;;;;;;6.80;5.45;;;21.60;99.90;;;;;;5064902;28;20210;-67
2022/07/24 00:44:07;;;;;;;6.97;5.15;;;21.50;99.90;;;;;;5060807;28;20197;-67
2022/07/24 00:46:35;;;;;;;8.35;5.47;;;21.50;99.90;;;;;;5062724;28;20194;-67
2022/07/24 00:49:07;;;;;;;6.55;5.38;;;21.60;99.90;;;;;;5064193;28;20190;-67
2022/07/24 00:51:46;;;;;;;10.02;5.90;;;21.60;99.90;;;;;;5061353;28;20218;-67
2022/07/24 00:54:15;;;;;;;6.63;5.45;;;21.50;99.90;;;;;;5058468;28;20194;-67
2022/07/24 00:56:45;;;;;;;6.30;5.22;;;21.40;99.90;;;;;;5056112;28;20198;-67
2022/07/24 00:59:12;;;;;;;6.78;5.32;;;21.20;99.90;;;;;;5066841;28;20217;-67
2022/07/24 01:01:39;;;;;;;10.50;5.70;;;21.10;99.90;;;;;;5059043;28;20217;-67
2022/07/24 01:04:06;;;;;;;8.10;5.28;;;21.00;99.90;;;;;;5058920;28;20206;-67
2022/07/24 01:06:35;;;;;;;7.13;5.20;;;20.90;99.90;;;;;;5061944;28;20198;-67
2022/07/24 01:09:02;;;;;;;7.35;5.05;;;20.80;99.90;;;;;;5063539;28;20201;-67
2022/07/24 01:11:30;;;;;;;9.02;5.57;;;20.80;99.90;;;;;;5065260;28;20709;-67
2022/07/24 01:13:57;;;;;;;8.25;6.22;;;20.70;99.90;;;;;;5055720;28;20209;-67
2022/07/24 01:16:24;;;;;;;9.23;5.80;;;20.60;99.90;;;;;;5062260;28;20202;-67
2022/07/24 01:18:50;;;;;;;5.87;5.27;;;20.60;99.90;;;;;;5067384;28;20214;-67
2022/07/24 01:21:17;;;;;;;5.63;5.03;;;20.70;99.90;;;;;;5057834;28;20691;-67
2022/07/24 01:23:45;;;;;;;7.35;5.40;;;20.70;99.90;;;;;;5064759;28;20194;-67
2022/07/24 01:26:11;;;;;;;10.35;5.20;;;20.60;99.90;;;;;;5059093;28;20721;-67
2022/07/24 01:28:38;;;;;;;7.63;5.70;;;20.40;99.90;;;;;;5063687;28;20194;-67
2022/07/24 01:31:05;;;;;;;7.87;5.80;;;20.20;99.90;;;;;;5067226;28;20221;-67
2022/07/24 01:33:32;;;;;;;7.23;5.40;;;20.40;99.90;;;;;;5060954;28;20222;-67
2022/07/24 01:35:58;;;;;;;6.97;5.00;;;20.30;99.90;;;;;;5057426;28;20186;-67
2022/07/24 01:38:25;;;;;;;7.03;5.00;;;20.10;99.90;;;;;;5058729;28;20686;-67
2022/07/24 01:40:52;;;;;;;5.23;4.73;;;20.10;99.90;;;;;;5068862;28;20229;-67
2022/07/24 01:43:18;;;;;;;6.30;5.10;;;20.00;99.90;;;;;;5060010;28;20281;-66
2022/07/24 01:45:45;;;;;;;6.17;5.17;;;20.00;99.90;;;;;;5067987;28;20198;-67
2022/07/24 01:48:12;;;;;;;7.87;5.23;;;19.90;99.90;;;;;;5065085;28;20194;-66
2022/07/24 01:50:39;;;;;;;7.73;5.80;;;19.90;99.90;;;;;;5063882;28;20724;-66
2022/07/24 01:53:06;;;;;;;5.33;4.83;;;20.10;99.90;;;;;;5059620;28;20198;-66
2022/07/24 01:55:33;;;;;;;5.93;5.30;;;20.10;99.90;;;;;;5066553;28;20205;-67
2022/07/24 01:57:59;;;;;;;5.80;5.10;;;20.20;99.90;;;;;;5063960;28;20213;-67
2022/07/24 02:00:26;;;;;;;6.83;5.77;;;20.10;99.90;;;;;;5068639;28;20222;-67
2022/07/24 02:02:53;;;;;;;6.83;5.10;;;20.20;99.90;;;;;;5067835;28;20193;-67
2022/07/24 02:05:19;;;;;;;6.53;5.43;;;20.40;99.90;;;;;;5064195;28;20197;-66
2022/07/24 02:07:56;;;;;;;6.72;5.22;;;20.60;99.90;;;;;;5058615;28;20197;-67
2022/07/24 02:10:23;;;;;;;7.97;5.37;;;20.80;99.90;;;;;;5070146;28;20217;-66
2022/07/24 02:12:50;;;;;;;7.40;5.07;;;20.90;99.90;;;;;;5060209;28;20191;-66
2022/07/24 02:15:16;;;;;;;5.88;4.90;;;20.90;99.90;;;;;;5070508;28;20307;-67
2022/07/24 02:17:47;;;;;;;7.20;4.50;;;20.80;99.90;;;;;;5065567;28;20237;-66
2022/07/24 02:20:14;;;;;;;5.70;4.78;;;20.80;99.90;;;;;;5070090;28;20230;-67
2022/07/24 02:22:41;;;;;;;6.82;4.80;;;20.80;99.90;;;;;;5062238;28;20677;-67
2022/07/24 02:25:08;;;;;;;6.03;4.80;;;20.80;99.90;;;;;;5070362;28;20190;-67
2022/07/24 02:27:35;;;;;;;5.95;5.10;;;20.80;99.90;;;;;;5063378;28;20202;-67
2022/07/24 02:30:08;;;;;;;6.50;5.22;;;20.90;99.90;;;;;;5060467;28;20221;-66
2022/07/24 02:32:34;;;;;;;6.38;4.88;;;21.00;99.90;;;;;;5063023;28;20206;-66
2022/07/24 02:35:01;;;;;;;6.15;5.20;;;21.00;99.90;;;;;;5068070;28;20217;-66
2022/07/24 02:37:34;;;;;;;6.30;5.10;;;21.00;99.90;;;;;;5067788;28;20277;-66
2022/07/24 02:40:01;;;;;;;6.53;5.40;;;20.90;99.90;;;;;;5064201;28;20217;-66
2022/07/24 02:42:27;;;;;;;5.80;4.80;;;20.80;99.90;;;;;;5066286;28;20207;-67
2022/07/24 02:44:54;;;;;;;5.63;5.03;;;20.70;99.90;;;;;;5067389;28;20636;-66
2022/07/24 02:47:21;;;;;;;8.33;4.80;;;20.60;99.90;;;;;;5067817;28;20190;-66
2022/07/24 02:49:47;;;;;;;5.90;5.20;;;20.40;99.90;;;;;;5065558;28;20195;-66
2022/07/24 02:52:14;;;;;;;7.67;5.47;;;20.40;99.90;;;;;;5068050;28;20202;-66
2022/07/24 02:54:41;;;;;;;6.67;5.37;;;20.40;99.90;;;;;;5067185;28;20674;-66
2022/07/24 02:57:08;;;;;;;6.70;5.10;;;20.40;99.90;;;;;;5068747;28;20198;-66
2022/07/24 02:59:34;;;;;;;6.35;5.50;;;20.50;99.90;;;;;;5063835;28;20219;-66
2022/07/24 03:02:01;;;;;;;6.90;5.53;;;20.50;99.90;;;;;;5059883;28;20220;-66
2022/07/24 03:04:28;;;;;;;6.53;5.83;;;20.30;99.90;;;;;;5064299;28;20194;-66
2022/07/24 03:06:54;;;;;;;7.40;5.10;;;20.10;99.90;;;;;;5064052;28;20634;-66
2022/07/24 03:09:21;;;;;;;6.83;5.70;;;19.90;99.90;;;;;;5060601;28;20198;-66
2022/07/24 03:11:47;;;;;;;7.20;5.53;;;19.80;99.90;;;;;;5067946;28;20218;-66
2022/07/24 03:14:14;;;;;;;7.43;5.40;;;19.80;99.90;;;;;;5062499;28;20213;-66
2022/07/24 03:16:41;;;;;;;6.13;5.20;;;19.90;99.90;;;;;;5065487;28;20213;-66
2022/07/24 03:19:07;;;;;;;7.73;5.43;;;19.90;99.90;;;;;;5069396;28;20203;-66
2022/07/24 03:21:34;;;;;;;6.70;5.23;;;19.90;99.90;;;;;;5067647;28;20285;-66
2022/07/24 03:24:15;;;;;;;8.27;6.10;;;19.80;99.90;;;;;;5066745;28;20255;-66
2022/07/24 03:26:41;;;;;;;6.90;5.60;;;19.80;99.90;;;;;;5061275;28;20197;-66
2022/07/24 03:29:08;;;;;;;7.17;5.50;;;19.90;99.90;;;;;;5065629;28;20202;-66
2022/07/24 03:31:35;;;;;;;7.53;5.73;;;19.90;99.90;;;;;;5066269;28;20210;-66
2022/07/24 03:34:02;;;;;;;7.50;5.83;;;19.90;99.90;;;;;;5059451;28;20190;-66
2022/07/24 03:36:28;;;;;;;8.53;5.97;;;19.90;99.90;;;;;;5068211;28;20191;-66
2022/07/24 03:38:55;;;;;;;6.77;5.63;;;19.90;99.90;;;;;;5063842;28;20213;-66
2022/07/24 03:41:22;;;;;;;7.87;5.87;;;19.90;99.90;;;;;;5066258;28;20217;-66
2022/07/24 03:43:49;;;;;;;7.53;5.77;;;19.90;99.90;;;;;;5062346;28;20201;-66
2022/07/24 03:46:16;;;;;;;7.00;5.23;;;20.00;99.90;;;;;;5066993;28;20198;-66
2022/07/24 03:48:43;;;;;;;6.07;5.10;;;19.90;99.90;;;;;;5066103;28;20733;-66
2022/07/24 03:51:10;;;;;;;8.80;5.30;;;19.80;99.90;;;;;;5068177;28;20218;-66
2022/07/24 03:53:37;;;;;;;7.07;5.57;;;19.80;99.90;;;;;;5064663;28;20206;-66
2022/07/24 03:56:08;;;;;;;6.37;5.23;;;19.80;99.90;;;;;;5064410;28;20191;-66
2022/07/24 03:58:35;;;;;;;7.43;5.30;;;19.70;99.90;;;;;;5065864;28;20202;-66
2022/07/24 04:01:06;;;;;;;5.73;5.07;;;19.80;99.90;;;;;;5064447;28;20241;-66
2022/07/24 04:03:33;;;;;;;6.40;5.40;;;19.80;99.90;;;;;;5065360;28;20190;-66
2022/07/24 04:06:01;;;;;;;6.67;5.00;;;19.80;99.90;;;;;;5062738;28;20204;-66
2022/07/24 04:08:27;;;;;;;5.53;4.77;;;19.80;99.90;;;;;;5068242;28;20194;-66
2022/07/24 04:10:56;;;;;;;8.53;5.47;;;19.70;99.90;;;;;;5066443;28;20708;-66
2022/07/24 04:13:28;;;;;;;7.23;5.10;;;19.60;99.90;;;;;;5066667;28;20194;-66
2022/07/24 04:15:55;;;;;;;6.60;5.40;;;19.50;99.90;;;;;;5066633;28;20195;-66
2022/07/24 04:18:22;;;;;;;6.27;5.17;;;19.40;99.90;;;;;;5067043;28;20237;-67
2022/07/24 04:20:50;;;;;;;7.53;5.40;;;19.40;99.90;;;;;;5061932;28;20226;-67
2022/07/24 04:23:17;;;;;;;6.23;4.70;;;19.50;99.90;;;;;;5062084;28;20292;-66
2022/07/24 04:25:45;;;;;;;5.73;4.57;;;19.40;99.90;;;;;;5065821;28;20223;-67
2022/07/24 04:28:12;;;;;;;5.47;4.53;;;19.40;99.90;;;;;;5058493;28;20190;-67
2022/07/24 04:30:38;;;;;;;5.10;4.47;;;19.50;99.90;;;;;;5061008;28;20768;-67
2022/07/24 04:33:05;;;;;;;5.97;4.90;;;19.60;99.90;;;;;;5064188;28;20221;-67
2022/07/24 04:35:32;;;;;;;6.60;5.23;;;19.70;99.90;;;;;;5063172;28;20199;-67
2022/07/24 04:38:00;;;;;;;5.73;5.13;;;19.80;99.90;;;;;;5058535;28;20194;-67
2022/07/24 04:40:26;;;;;;;5.90;5.23;;;20.10;99.90;;;;;;5063201;28;20218;-67
2022/07/24 04:42:53;;;;;;;5.20;4.67;;;20.20;99.90;;;;;;5061587;28;20201;-67
2022/07/24 04:45:20;;;;;;;7.13;5.47;;;20.30;99.90;;;;;;5065057;28;20273;-67
2022/07/24 04:47:46;;;;;;;6.70;5.10;;;20.40;99.90;;;;;;5064571;28;20286;-66
2022/07/24 04:50:13;;;;;;;7.37;5.07;;;20.50;99.90;;;;;;5063347;28;20241;-67
2022/07/24 04:52:41;;;;;;;7.03;5.10;;;20.40;99.90;;;;;;5060970;28;20230;-67
2022/07/24 04:55:09;;;;;;;6.28;4.78;;;20.60;99.90;;;;;;5062357;28;20209;-67
2022/07/24 04:57:36;;;;;;;7.80;5.53;;;20.60;99.90;;;;;;5053414;28;20678;-67
2022/07/24 05:00:05;;;;;;;6.30;5.28;;;20.60;99.90;;;;;;5063929;28;20221;-67
2022/07/24 05:02:31;;;;;;;6.57;5.32;;;20.70;99.90;;;;;;5067150;28;20213;-67
2022/07/24 05:04:58;;;;;;;7.63;5.30;;;20.70;99.90;;;;;;5055302;28;20602;-67
2022/07/24 05:07:25;;;;;;;6.00;4.93;;;20.70;99.90;;;;;;5065913;28;20198;-67
2022/07/24 05:09:51;;;;;;;7.03;5.82;;;20.80;99.90;;;;;;5065654;28;20194;-67
2022/07/24 05:12:18;;;;;;;6.78;5.80;;;21.00;99.90;;;;;;5068078;28;20198;-67
2022/07/24 05:14:45;;;;;;;7.15;5.30;;;21.10;99.90;;;;;;5058029;28;20190;-67
2022/07/24 05:17:11;;;;;;;7.60;5.35;;;21.30;99.90;;;;;;5065176;28;20232;-67
2022/07/24 05:19:38;;;;;;;6.82;5.53;;;21.40;99.90;;;;;;5060674;28;20210;-67
2022/07/24 05:22:05;;;;;;;7.30;5.82;;;21.50;99.90;;;;;;5060702;28;20211;-67
2022/07/24 05:24:32;;;;;;;9.52;6.22;;;21.50;99.90;;;;;;5062575;28;20199;-67
2022/07/24 05:26:58;;;;;;;8.32;5.70;;;21.50;99.90;;;;;;5061815;28;20212;-67
2022/07/24 05:29:25;;;;;;;7.40;5.53;;;21.60;99.90;;;;;;5060968;28;20202;-67
2022/07/24 05:31:54;;;;;;;7.80;6.18;;;21.70;99.90;;;;;;5057464;28;20622;-66
2022/07/24 05:34:21;;;;;;;8.38;5.72;;;21.70;99.90;;;;;;5060659;28;20194;-67
2022/07/24 05:36:48;;;;;;;7.55;5.97;;;21.80;99.90;;;;;;5062058;28;20619;-65
2022/07/24 05:39:15;;;;;;;7.10;5.57;;;21.70;99.90;;;;;;5054327;28;20191;-65
2022/07/24 05:41:42;;;;;;;6.63;5.43;;;21.90;99.90;;;;;;5061412;28;20352;-65
2022/07/24 05:44:08;;;;;;;7.43;5.45;;;21.90;99.90;;;;;;5065672;28;20198;-65
2022/07/24 05:46:35;;;;;;;7.20;5.30;;;22.00;99.90;;;;;;5061841;28;20663;-66
2022/07/24 05:49:02;;;;;;;6.93;5.65;;;22.10;99.90;;;;;;5062323;28;20189;-66
2022/07/24 05:51:29;;;;;;;6.57;5.00;;;22.10;99.90;;;;;;5061398;28;20214;-66
2022/07/24 05:53:56;;;;;;;6.10;5.40;;;22.30;99.90;;;;;;5059905;28;20212;-65
2022/07/24 05:56:22;;;;;;;5.97;5.20;;;22.50;99.90;;;;;;5057745;28;20194;-66
2022/07/24 05:58:49;;;;;;;6.93;4.82;;;22.60;99.90;;;;;;5066184;28;20571;-66
2022/07/24 06:01:27;;;;;;;7.05;5.00;;;22.40;99.90;;;;;;5067614;28;20222;-66
2022/07/24 06:03:54;;;;;;;7.32;5.07;;;22.50;99.90;;;;;;5060872;28;20667;-66
2022/07/24 06:06:21;;;;;;;5.97;5.20;;;22.50;99.90;;;;;;5067734;28;20580;-66
2022/07/24 06:08:48;;;;;;;7.88;5.28;;;22.70;99.90;;;;;;5060145;28;20289;-66
2022/07/24 06:11:14;;;;;;;8.57;5.10;;;22.80;99.90;;;;;;5067643;28;20297;-66
2022/07/24 06:13:41;;;;;;;5.55;4.97;;;22.90;99.90;;;;;;5062045;28;20216;-66
2022/07/24 06:16:09;;;;;;;5.85;4.82;;;23.10;99.90;;;;;;5068084;28;20628;-67
2022/07/24 06:18:36;;;;;;;5.95;4.65;;;23.20;99.90;;;;;;5062671;28;20201;-66
2022/07/24 06:21:03;;;;;;;6.47;5.10;;;23.50;99.90;;;;;;5061231;28;20217;-66
2022/07/24 06:23:29;;;;;;;5.20;4.63;;;23.60;99.90;;;;;;5065913;28;20251;-66
2022/07/24 06:25:56;;;;;;;7.32;4.90;;;23.70;99.90;;;;;;5067542;28;20200;-66
2022/07/24 06:28:23;;;;;;;6.38;4.68;;;23.90;99.90;;;;;;5064243;28;20200;-66
2022/07/24 06:30:50;;;;;;;6.18;4.70;;;24.10;99.90;;;;;;5067391;28;20213;-66
2022/07/24 06:33:16;;;;;;;5.50;4.13;;;24.20;99.90;;;;;;5067317;28;20713;-66
2022/07/24 06:35:43;;;;;;;5.63;3.90;;;24.40;99.90;;;;;;5062419;28;20202;-66
2022/07/24 06:38:10;;;;;;;5.05;3.67;;;24.50;99.90;;;;;;5066179;28;20634;-66
2022/07/24 06:40:37;;;;;;;4.25;3.40;;;24.50;99.90;;;;;;5067387;28;20225;-66
2022/07/24 06:43:03;;;;;;;4.53;3.55;;;24.60;99.90;;;;;;5065408;28;20682;-66
2022/07/24 06:45:33;;;;;;;4.85;4.03;;;24.60;99.90;;;;;;5065812;28;20198;-66
2022/07/24 06:48:00;;;;;;;6.18;3.60;;;24.80;99.90;;;;;;5071558;28;20201;-66
2022/07/24 06:50:28;;;;;;;4.60;3.40;;;24.80;99.90;;;;;;5068459;28;20271;-66
2022/07/24 06:52:55;;;;;;;4.10;3.15;;;25.00;99.90;;;;;;5070569;28;20194;-66
2022/07/24 06:55:22;;;;;;;4.95;3.08;;;25.10;99.90;;;;;;5068871;28;20289;-66
2022/07/24 06:57:49;;;;;;;4.30;3.42;;;25.20;99.90;;;;;;5070871;28;20201;-66
2022/07/24 07:00:15;;;;;;;5.15;3.40;;;25.30;99.90;;;;;;5070528;28;20251;-66
2022/07/24 07:02:42;;;;;;;4.05;3.28;;;25.30;99.90;;;;;;5070562;28;20201;-66
2022/07/24 07:05:09;;;;;;;4.53;3.53;;;25.40;99.90;;;;;;5068513;28;20217;-66
2022/07/24 07:07:37;;;;;;;4.07;3.60;;;25.70;99.90;;;;;;5071064;28;20201;-66
2022/07/24 07:10:05;;;;;;;4.75;3.20;;;26.30;99.90;;;;;;5069094;28;20590;-66
2022/07/24 07:12:32;;;;;;;4.10;3.10;;;27.30;99.90;;;;;;5070514;28;20194;-66
2022/07/24 07:15:07;;;;;;;3.53;3.00;;;28.00;99.90;;;;;;5064135;28;20201;-66
2022/07/24 07:17:36;;;;;;;4.40;2.90;;;28.70;99.90;;;;;;5068830;28;20670;-66
2022/07/24 07:20:02;;;;;;;5.07;3.20;;;29.20;99.90;;;;;;5062657;28;20221;-66
2022/07/24 07:22:29;;;;;;;5.25;3.20;;;29.50;99.90;;;;;;5070208;28;20701;-66
2022/07/24 07:24:56;;;;;;;4.28;3.60;;;29.90;99.90;;;;;;5068926;28;20642;-66
2022/07/24 07:27:22;;;;;;;4.05;3.20;;;30.00;99.90;;;;;;5070618;28;20194;-66
2022/07/24 07:29:49;;;;;;;4.85;3.08;;;30.20;99.90;;;;;;5061866;28;20603;-66
2022/07/24 07:32:16;;;;;;;3.95;3.28;;;30.40;99.90;;;;;;5069973;28;20281;-66
2022/07/24 07:34:43;;;;;;;3.95;3.42;;;30.70;99.90;;;;;;5067873;28;20205;-66
2022/07/24 07:37:09;;;;;;;5.38;3.50;;;30.60;99.90;;;;;;5070520;28;20198;-66
2022/07/24 07:39:36;;;;;;;4.05;3.40;;;30.30;99.90;;;;;;5061825;28;20479;-66
2022/07/24 07:42:03;;;;;;;5.95;3.33;;;29.60;99.90;;;;;;5069601;28;20222;-66
2022/07/24 07:44:30;;;;;;;3.50;3.20;;;29.30;99.90;;;;;;5068377;28;20277;-66
2022/07/24 07:46:57;;;;;;;4.38;3.28;;;29.30;99.90;;;;;;5067886;28;20198;-66
2022/07/24 07:49:24;;;;;;;3.80;3.40;;;29.40;99.90;;;;;;5070250;28;20190;-66
2022/07/24 07:51:52;;;;;;;4.00;3.10;;;29.60;99.90;;;;;;5069698;28;20218;-66
2022/07/24 07:54:19;;;;;;;4.40;3.30;;;29.80;99.90;;;;;;5065106;28;20218;-66
2022/07/24 07:56:46;;;;;;;4.05;3.58;;;29.90;99.90;;;;;;5068863;28;20600;-68
2022/07/24 07:59:13;;;;;;;6.28;3.30;;;29.90;99.90;;;;;;5068529;28;20194;-68
2022/07/24 08:01:39;;;;;;;4.05;3.30;;;29.70;99.90;;;;;;5069465;28;20221;-68
2022/07/24 08:04:06;;;;;;;4.32;3.33;;;29.60;99.90;;;;;;5063586;28;20650;-68
2022/07/24 08:06:33;;;;;;;4.68;3.25;;;29.70;99.90;;;;;;5066949;28;20202;-68
2022/07/24 08:09:00;;;;;;;4.35;3.33;;;29.70;99.90;;;;;;5070260;28;20532;-68
2022/07/24 08:11:28;;;;;;;5.25;3.33;;;29.70;99.90;;;;;;5069482;28;20690;-68
2022/07/24 08:13:55;;;;;;;5.75;3.65;;;29.20;99.90;;;;;;5066562;28;20206;-69
2022/07/24 08:16:22;;;;;;;4.50;3.70;;;29.00;99.90;;;;;;5067983;28;20217;-68
2022/07/24 08:18:48;;;;;;;3.55;3.08;;;29.10;99.90;;;;;;5069368;28;20199;-68
2022/07/24 08:21:18;;;;;;;4.82;3.22;;;29.20;99.90;;;;;;5064686;28;20652;-69
2022/07/24 08:23:45;;;;;;;4.28;3.65;;;29.40;99.90;;;;;;5066231;28;20229;-68
2022/07/24 08:26:12;;;;;;;4.60;3.58;;;29.30;99.90;;;;;;5069547;28;20236;-68
2022/07/24 08:28:39;;;;;;;4.30;3.38;;;29.40;99.90;;;;;;5069548;28;20199;-67
2022/07/24 08:31:06;;;;;;;5.32;3.67;;;29.30;99.90;;;;;;5067878;28;20229;-69
2022/07/24 08:33:33;;;;;;;4.60;3.55;;;29.40;99.90;;;;;;5067451;28;20544;-68
2022/07/24 08:36:00;;;;;;;7.07;3.78;;;29.60;99.90;;;;;;5068306;28;20194;-68
2022/07/24 08:38:26;;;;;;;4.45;3.53;;;29.50;99.90;;;;;;5066644;28;20202;-68
2022/07/24 08:40:53;;;;;;;5.32;3.70;;;29.50;99.90;;;;;;5068849;28;20218;-68
2022/07/24 08:43:20;;;;;;;3.67;3.33;;;29.70;99.90;;;;;;5067892;28;20581;-68
2022/07/24 08:45:49;;;;;;;5.13;3.50;;;29.70;99.90;;;;;;5067782;28;20198;-68
2022/07/24 08:48:18;;;;;;;4.57;3.75;;;29.80;99.90;;;;;;5068157;28;20524;-68
2022/07/24 08:50:45;;;;;;;4.18;3.67;;;29.80;99.90;;;;;;5066440;28;20218;-68
2022/07/24 08:53:11;;;;;;;4.45;3.40;;;29.80;99.90;;;;;;5067855;28;20194;-68
2022/07/24 08:55:38;;;;;;;4.88;3.30;;;29.90;99.90;;;;;;5068258;28;20557;-68
2022/07/24 08:58:05;;;;;;;4.25;3.53;;;29.90;99.90;;;;;;5061847;28;20569;-68
2022/07/24 09:00:32;;;;;;;4.65;3.45;;;29.90;99.90;;;;;;5064142;28;20218;-68
2022/07/24 09:02:59;;;;;;;4.25;3.40;;;30.00;99.90;;;;;;5066244;28;20209;-68
2022/07/24 09:05:26;;;;;;;4.47;3.60;;;30.10;99.90;;;;;;5067023;28;20208;-68
2022/07/24 09:08:14;;;;;;;4.95;3.30;;;30.10;99.90;;;;;;5068712;28;20202;-68
2022/07/24 09:10:52;;;;;;;4.38;3.42;;;30.20;99.90;;;;;;5068365;28;20245;-68
2022/07/24 09:13:19;;;;;;;4.03;3.63;;;30.20;99.90;;;;;;5063221;28;20665;-68
2022/07/24 09:15:47;;;;;;;4.32;3.35;;;30.40;99.90;;;;;;5066306;28;20281;-68
2022/07/24 09:18:32;;;;;;;5.03;3.67;;;30.50;99.90;;;;;;5068002;28;20213;-68
2022/07/24 09:21:12;;;;;;;5.30;3.67;;;30.60;99.70;;;;;;5067080;28;20596;-68
2022/07/24 09:23:40;;;;;;;6.80;3.97;;;30.70;99.40;;;;;;5066965;28;20190;-68
2022/07/24 09:26:07;;;;;;;7.55;4.57;;;30.80;99.70;;;;;;5068430;28;20190;-68
2022/07/24 09:28:51;;;;;;;4.47;3.75;;;30.80;99.20;;;;;;5067085;28;20567;-68
2022/07/24 09:31:21;;;;;;;4.82;3.85;;;30.90;99.30;;;;;;5061038;28;20304;-68
2022/07/24 09:33:48;;;;;;;4.38;3.80;;;31.00;99.70;;;;;;5062720;28;20209;-68
2022/07/24 09:36:18;;;;;;;4.70;3.75;;;31.10;99.50;;;;;;5067336;28;20280;-66
2022/07/24 09:38:51;;;;;;;4.25;3.80;;;31.10;99.00;;;;;;5066491;28;20205;-66
2022/07/24 09:41:22;;;;;;;4.10;3.55;;;31.20;99.60;;;;;;5060839;28;20223;-66
2022/07/24 09:44:00;;;;;;;4.57;3.78;;;31.40;99.50;;;;;;5066622;28;20198;-66
2022/07/24 09:46:27;;;;;;;4.75;4.07;;;31.40;98.60;;;;;;5062880;28;20201;-66
2022/07/24 09:48:59;;;;;;;5.88;3.92;;;31.40;98.20;;;;;;5066852;28;20194;-66
2022/07/24 09:51:28;;;;;;;6.40;4.00;;;31.50;99.00;;;;;;5068040;28;20705;-66
2022/07/24 09:53:57;;;;;;;4.18;3.78;;;31.50;98.80;;;;;;5058825;28;20274;-66
2022/07/24 09:56:25;;;;;;;4.82;3.95;;;31.60;98.80;;;;;;5067935;28;20696;-66
2022/07/24 09:58:55;;;;;;;5.93;4.00;;;31.50;98.60;;;;;;5063494;28;20214;-67
2022/07/24 10:01:24;;;;;;;4.45;3.90;;;31.60;98.50;;;;;;5063173;28;20664;-66
2022/07/24 10:03:53;;;;;;;7.63;4.20;;;31.70;98.50;;;;;;5066440;28;20190;-66
2022/07/24 10:06:25;;;;;;;6.53;3.83;;;31.70;98.10;;;;;;5062601;28;20198;-67
2022/07/24 10:08:54;;;;;;;4.63;4.10;;;31.70;97.60;;;;;;5066832;28;20199;-67
2022/07/24 10:11:22;;;;;;;5.07;4.30;;;31.70;97.90;;;;;;5068195;28;20209;-68
2022/07/24 10:13:52;;;;;;;5.93;3.97;;;31.70;97.90;;;;;;5067864;28;20197;-67
2022/07/24 10:16:39;;;;;;;5.15;4.28;;;31.70;97.60;;;;;;5049396;28;20263;-67
2022/07/24 10:19:14;;;;;;;6.57;4.43;;;31.80;96.90;;;;;;5056358;28;20202;-68
2022/07/24 10:21:53;;;;;;;7.00;4.55;;;31.90;96.90;;;;;;5064332;28;20275;-67
2022/07/24 10:24:48;;;;;;;5.45;4.60;;;31.90;96.60;;;;;;5065273;28;20217;-68
2022/07/24 10:27:32;;;;;;;7.38;4.30;;;32.00;96.90;;;;;;5062041;28;20190;-67
2022/07/24 10:30:04;;;;;;;5.53;4.25;;;32.00;97.00;;;;;;5064321;28;20202;-67
2022/07/24 10:32:32;;;;;;;6.22;4.47;;;32.00;96.50;;;;;;5070403;28;20563;-67
2022/07/24 10:35:21;;;;;;;4.90;3.90;;;32.10;96.70;;;;;;5061338;28;20662;-67
2022/07/24 10:38:14;;;;;;;5.28;4.75;;;32.20;96.00;;;;;;5065752;28;20579;-66
2022/07/24 10:40:54;;;;;;;5.28;4.60;;;32.10;96.20;;;;;;5066997;28;20221;-67
2022/07/24 10:43:22;;;;;;;9.05;4.90;;;32.00;96.30;;;;;;5066760;28;20268;-66
2022/07/24 10:45:48;;;;;;;5.30;4.57;;;31.80;96.70;;;;;;5071117;28;20194;-66
2022/07/24 10:48:22;;;;;;;7.88;5.30;;;31.90;96.70;;;;;;5066294;28;20197;-65
2022/07/24 10:51:05;;;;;;;6.45;5.35;;;32.10;96.20;;;;;;5062737;28;20468;-66
2022/07/24 10:53:35;;;;;;;6.45;4.90;;;32.10;96.20;;;;;;5065562;28;20198;-66
2022/07/24 10:56:41;;;;;;;8.30;5.28;;;32.10;96.70;;;;;;5066523;28;20561;-67
2022/07/24 10:59:14;;;;;;;7.35;5.00;;;32.20;96.10;;;;;;5064949;28;20201;-66
2022/07/24 11:01:44;;;;;;;8.20;5.43;;;32.30;96.60;;;;;;5063381;28;20589;-66
2022/07/24 11:04:23;;;;;;;5.80;5.28;;;32.40;96.10;;;;;;5064193;28;20200;-66
2022/07/24 11:06:53;;;;;;;8.38;5.13;;;32.40;96.10;;;;;;5060948;28;20546;-67
2022/07/24 11:09:26;;;;;;;7.82;5.10;;;32.40;96.70;;;;;;5061284;28;20213;-66
2022/07/24 11:11:52;;;;;;;5.82;4.75;;;32.50;96.00;;;;;;5065499;28;20256;-66
2022/07/24 11:14:24;;;;;;;7.45;4.93;;;32.50;96.00;;;;;;5066376;28;20611;-66
2022/07/24 11:16:51;;;;;;;7.05;5.28;;;32.50;96.30;;;;;;5060582;28;20260;-66
2022/07/24 11:19:18;;;;;;;7.70;5.95;;;32.70;96.10;;;;;;5059671;28;20198;-66
2022/07/24 11:21:46;;;;;;;6.18;5.30;;;32.80;95.90;;;;;;5060589;28;20437;-66
2022/07/24 11:26:52;;;;;;;7.35;5.15;;;33.10;95.00;;;;;;5067092;28;20966;-66
2022/07/24 11:29:29;;;;;;;6.13;5.18;;;33.00;95.10;;;;;;5065097;28;20269;-65
2022/07/24 11:32:10;;;;;;;8.38;5.15;;;33.20;95.20;;;;;;5063351;28;20228;-67
2022/07/24 11:34:46;;;;;;;7.40;4.72;;;33.10;95.20;;;;;;5065034;28;20197;-67
2022/07/24 11:37:13;;;;;;;6.05;5.22;;;33.30;94.70;;;;;;5063534;28;20678;-67
2022/07/24 11:39:41;;;;;;;5.78;4.90;;;33.40;94.50;;;;;;5059605;28;20205;-67
2022/07/24 11:42:10;;;;;;;5.68;4.97;;;33.50;94.40;;;;;;5065887;28;20235;-67
2022/07/24 11:44:46;;;;;;;6.32;4.80;;;33.60;93.90;;;;;;5066349;28;20201;-67
2022/07/24 11:47:15;;;;;;;5.93;4.60;;;33.70;93.90;;;;;;5058864;28;20193;-67
2022/07/24 11:49:52;;;;;;;5.68;4.80;;;33.60;93.60;;;;;;5060502;28;20195;-67
2022/07/24 11:52:20;;;;;;;9.63;5.22;;;33.60;93.50;;;;;;5058482;28;20194;-67
2022/07/24 11:54:48;;;;;;;5.35;4.85;;;33.50;93.70;;;;;;5067684;28;20193;-67
2022/07/24 11:57:27;;;;;;;5.53;4.95;;;33.40;93.50;;;;;;5067355;28;20203;-67
2022/07/24 12:00:16;;;;;;;7.03;4.95;;;33.30;93.90;;;;;;5059697;28;20229;-68
2022/07/24 12:02:49;;;;;;;5.60;5.00;;;33.00;93.50;;;;;;5063032;28;20709;-69
2022/07/24 12:05:49;;;;;;;5.85;4.90;;;33.00;93.70;;;;;;5064127;28;20199;-66
2022/07/24 12:08:26;;;;;;;5.57;5.00;;;32.70;93.70;;;;;;5062241;28;20309;-65
2022/07/24 12:10:55;;;;;;;5.60;4.72;;;32.50;93.90;;;;;;5067327;28;20257;-65
2022/07/24 12:13:22;;;;;;;7.80;5.20;;;32.20;93.90;;;;;;5069056;28;20198;-65
2022/07/24 12:15:49;;;;;;;7.82;5.10;;;32.30;94.40;;;;;;5060498;28;20366;-65
2022/07/24 12:18:17;;;;;;;5.93;5.05;;;32.40;94.70;;;;;;5068934;28;20210;-66
2022/07/24 12:20:57;;;;;;;5.85;4.88;;;32.50;94.30;;;;;;5056961;28;20264;-65
2022/07/24 12:23:24;;;;;;;8.57;5.55;;;32.30;93.90;;;;;;5046546;28;20221;-64
2022/07/24 12:25:51;;;;;;;6.47;5.20;;;32.10;94.30;;;;;;5060494;28;20198;-67
2022/07/24 12:28:18;;;;;;;6.13;5.22;;;32.00;94.60;;;;;;5051531;28;20206;-64
2022/07/24 12:30:53;;;;;;;5.88;5.20;;;32.10;94.90;;;;;;5054516;28;20738;-64
2022/07/24 12:33:26;;;;;;;6.88;4.88;;;32.40;94.60;;;;;;5054663;28;20189;-64
2022/07/24 12:35:55;;;;;;;5.63;4.93;;;32.50;94.30;;;;;;5054199;28;20228;-64
2022/07/24 12:38:33;;;;;;;7.40;5.30;;;32.60;94.20;;;;;;5066339;28;20205;-64
2022/07/24 12:41:11;;;;;;;7.32;5.00;;;32.70;94.20;;;;;;5061153;28;20223;-64
2022/07/24 12:43:56;;;;;;;6.38;4.82;;;33.00;94.20;;;;;;5065679;28;20226;-63
2022/07/24 12:46:42;;;;;;;6.57;5.45;;;33.10;93.90;;;;;;5051969;28;20201;-63
2022/07/24 12:49:11;;;;;;;5.80;5.20;;;33.10;94.10;;;;;;5054628;28;20190;-63
2022/07/24 12:51:55;;;;;;;6.72;5.00;;;33.00;94.10;;;;;;5059691;28;20492;-63
2022/07/24 12:54:25;;;;;;;6.28;5.03;;;33.10;93.90;;;;;;5055259;28;20650;-63
2022/07/24 12:56:55;;;;;;;7.65;4.95;;;33.20;93.90;;;;;;5056850;28;20659;-63
2022/07/24 12:59:33;;;;;;;7.22;5.05;;;33.30;93.30;;;;;;5058753;28;20186;-63